Terminal Aerodrome Forecast
Issued by NWS

Home | Current Version | Previous Version | Text Only | Print | Product List | Glossary On
Versions: 1 2 3 4 5 6 7 8 9 10 11 12 13 14 15 16 17 18
000
FTUS41 KBOX 251741
TAFACK
TAF
KACK 251741Z 2518/2618 09016G27KT 3SM -SHRA BR OVC004
     FM252000 09018G26KT 2SM -SHRA BR OVC003
     FM260000 10017G24KT 1SM -SHRA BR OVC003
     FM260300 11017KT 1SM -SHRA BR OVC003 WS020/15045KT
     FM261700 14017G27KT 1 1/2SM -SHRA BR OVC003=

USA.gov is the U.S. government's official web portal to all federal, state and local government web resources and services.